KGSO/GSO METAR and TAF weather

Enter ICAO airport designator
Station Type Date Time Source
KGSO METAR 2020/01/29 02:54 UTC NOAA

KGSO 290254Z 05005KT 10SM CLR 03/M02 A3002 RMK AO2 SLP169 T00331022 51012


Station Type Date Time Source
KGSO Decoded METAR 2020/01/29 02:54 UTC NOAA

PIEDMONT TRIAD INTERNATIONAL AIRPORT , NC, United States (KGSO) 36-06N 079-57W 275M
Jan 28, 2020 - 09:54 PM EST / 2020.01.29 0254 UTC
Wind: from the NE (050 degrees) at 6 MPH (5 KT):0
Visibility: 10 mile(s):0
Sky conditions: clear
Temperature: 37.9 F (3.3 C)
Dew Point: 28.0 F (-2.2 C)
Relative Humidity: 67%
Pressure (altimeter): 30.02 in. Hg (1016 hPa)
Pressure tendency: 0.04 inches (1.2 hPa) higher than three hours ago
ob: KGSO 290254Z 05005KT 10SM CLR 03/M02 A3002 RMK AO2 SLP169 T00331022 51012
cycle: 3

Station Type Date Time Source
KGSO TAF 2020/01/28 18:39 UTC NOAA

TAF KGSO 281737Z 2818/2918 32006KT P6SM SCT040
FM290300 36003KT P6SM BKN035

Example: see airport list